createdAt,value
2023-02-18T00:00:28.582Z,12.17
2023-02-18T00:03:51.616Z,12.10
2023-02-18T00:07:13.490Z,12.12
2023-02-18T00:10:40.388Z,12.09
2023-02-18T00:14:12.209Z,12.04
2023-02-18T00:17:38.350Z,12.04
2023-02-18T00:21:05.722Z,12.01
2023-02-18T00:24:28.658Z,11.78
2023-02-18T00:27:51.647Z,11.86
2023-02-18T00:31:21.203Z,11.77
2023-02-18T00:34:49.968Z,11.76
2023-02-18T00:38:12.128Z,11.72
2023-02-18T00:41:35.643Z,11.80
2023-02-18T00:44:58.574Z,11.82
2023-02-18T00:48:20.672Z,11.73
2023-02-18T00:51:43.853Z,11.85
2023-02-18T00:55:06.281Z,11.52
2023-02-18T00:58:29.495Z,11.58
2023-02-18T01:01:51.440Z,11.20
2023-02-18T01:05:13.321Z,11.31
2023-02-18T01:08:37.171Z,11.26
2023-02-18T01:12:00.118Z,10.77
2023-02-18T01:15:23.107Z,11.17
2023-02-18T01:18:46.080Z,11.25
2023-02-18T01:22:09.183Z,11.20
2023-02-18T01:25:38.359Z,11.29
2023-02-18T01:29:00.357Z,11.33
2023-02-18T01:32:22.891Z,11.67
2023-02-18T01:35:45.605Z,11.71
2023-02-18T01:39:07.549Z,11.67
2023-02-18T01:42:30.163Z,11.68
2023-02-18T01:46:17.364Z,11.79
2023-02-18T01:49:53.589Z,11.68
2023-02-18T01:53:27.132Z,11.42
2023-02-18T01:57:13.879Z,11.17
2023-02-18T02:00:36.995Z,11.49
2023-02-18T02:04:01.816Z,11.53
2023-02-18T02:07:29.231Z,11.67
2023-02-18T02:11:55.334Z,11.77
2023-02-18T02:15:47.726Z,11.63
2023-02-18T02:19:34.334Z,11.76
2023-02-18T02:23:39.557Z,11.75
2023-02-18T02:27:24.320Z,11.61
2023-02-18T02:31:16.846Z,11.65
2023-02-18T02:35:01.347Z,11.64
2023-02-18T02:38:43.992Z,11.77
2023-02-18T02:42:41.409Z,11.71
2023-02-18T02:46:18.312Z,11.48
2023-02-18T02:50:00.355Z,11.45
2023-02-18T02:53:28.743Z,11.39
2023-02-18T02:57:02.195Z,11.48
2023-02-18T03:01:08.479Z,11.56
2023-02-18T03:04:59.758Z,11.50
2023-02-18T03:08:50.566Z,11.47
2023-02-18T03:12:43.731Z,11.46
2023-02-18T03:16:21.896Z,11.52
2023-02-18T03:20:02.261Z,11.53
2023-02-18T03:23:58.317Z,11.59
2023-02-18T03:27:31.851Z,11.65
2023-02-18T03:31:06.314Z,11.46
2023-02-18T03:34:40.874Z,11.45
2023-02-18T03:38:23.646Z,11.39
2023-02-18T03:41:46.491Z,11.29
2023-02-18T03:45:08.535Z,11.27
2023-02-18T03:48:30.378Z,11.45
2023-02-18T03:51:52.332Z,11.30
2023-02-18T03:55:14.535Z,11.36
2023-02-18T03:58:36.435Z,11.41
2023-02-18T04:01:58.289Z,11.12
2023-02-18T04:05:21.237Z,11.08
2023-02-18T04:08:43.252Z,11.22
2023-02-18T04:12:05.187Z,11.03
2023-02-18T04:15:36.920Z,10.99
2023-02-18T04:18:59.950Z,11.00
2023-02-18T04:22:27.776Z,11.33
2023-02-18T04:25:52.784Z,11.22
2023-02-18T04:29:14.848Z,11.23
2023-02-18T04:32:38.793Z,11.48
2023-02-18T04:36:00.661Z,11.38
2023-02-18T04:39:22.572Z,11.41
2023-02-18T04:42:44.327Z,11.54
2023-02-18T04:46:07.590Z,11.39
2023-02-18T04:49:29.684Z,11.38
2023-02-18T04:52:51.546Z,11.44
2023-02-18T04:56:14.976Z,11.23
2023-02-18T04:59:37.049Z,11.41
2023-02-18T05:02:58.856Z,11.37
2023-02-18T05:06:20.697Z,11.43
2023-02-18T05:09:42.701Z,11.43
2023-02-18T05:13:04.641Z,11.44
2023-02-18T05:16:37.516Z,11.29
2023-02-18T05:19:59.459Z,11.51
2023-02-18T05:23:21.327Z,11.46
2023-02-18T05:26:43.148Z,11.34
2023-02-18T05:30:05.997Z,11.46
2023-02-18T05:33:27.855Z,11.30
2023-02-18T05:36:56.601Z,11.41
2023-02-18T05:40:18.534Z,11.07
2023-02-18T05:43:59.171Z,11.09
2023-02-18T05:47:22.075Z,11.11
2023-02-18T05:50:43.923Z,11.00
2023-02-18T05:54:06.798Z,10.04
2023-02-18T05:57:28.668Z,10.92
2023-02-18T06:00:50.448Z,11.40
2023-02-18T06:04:12.733Z,11.27
2023-02-18T06:07:34.811Z,11.31
2023-02-18T06:10:56.732Z,11.13
2023-02-18T06:14:21.664Z,11.07
2023-02-18T06:17:44.632Z,10.77
2023-02-18T06:21:06.852Z,10.82
2023-02-18T06:24:28.682Z,10.75
2023-02-18T06:27:50.812Z,10.82
2023-02-18T06:31:12.795Z,10.73
2023-02-18T06:34:35.722Z,10.90
2023-02-18T06:37:57.564Z,11.00
2023-02-18T06:41:19.470Z,10.98
2023-02-18T06:44:43.381Z,10.99
2023-02-18T06:48:05.426Z,10.93
2023-02-18T06:51:27.301Z,9.63
2023-02-18T06:54:49.104Z,10.12
2023-02-18T06:58:12.541Z,10.06
2023-02-18T07:01:35.531Z,10.73
2023-02-18T07:04:59.406Z,10.82
2023-02-18T07:08:21.654Z,11.10
2023-02-18T07:11:43.527Z,10.99
2023-02-18T07:15:05.785Z,11.19
2023-02-18T07:18:27.646Z,11.38
2023-02-18T07:21:49.574Z,11.30
2023-02-18T07:25:18.519Z,11.48
2023-02-18T07:28:41.731Z,11.41
2023-02-18T07:32:03.836Z,11.49
2023-02-18T07:35:25.728Z,11.53
2023-02-18T07:38:47.630Z,11.65
2023-02-18T07:42:11.660Z,10.71
2023-02-18T07:45:33.593Z,10.69
2023-02-18T07:48:57.569Z,10.78
2023-02-18T07:52:20.485Z,10.41
2023-02-18T07:55:51.382Z,10.56
2023-02-18T07:59:13.865Z,10.52
2023-02-18T08:02:35.636Z,10.48
2023-02-18T08:05:58.862Z,10.49
2023-02-18T08:09:20.666Z,10.47
2023-02-18T08:12:42.431Z,10.53
2023-02-18T08:16:04.646Z,10.49
2023-02-18T08:19:28.497Z,11.44
2023-02-18T08:22:50.384Z,11.61
2023-02-18T08:26:13.336Z,11.68
2023-02-18T08:29:38.920Z,11.76
2023-02-18T08:33:01.804Z,11.48
2023-02-18T08:36:24.826Z,11.86
2023-02-18T08:39:48.751Z,11.84
2023-02-18T08:43:18.818Z,10.65
2023-02-18T08:46:48.291Z,10.77
2023-02-18T08:50:10.601Z,10.96
2023-02-18T08:53:33.435Z,10.56
2023-02-18T08:56:59.972Z,11.38
2023-02-18T09:00:23.634Z,10.80
2023-02-18T09:03:48.884Z,10.79
2023-02-18T09:07:16.578Z,11.55
2023-02-18T09:10:46.288Z,11.98
2023-02-18T09:14:09.365Z,11.85
2023-02-18T09:17:34.492Z,11.96
2023-02-18T09:21:09.733Z,12.14
2023-02-18T09:24:41.706Z,11.54
2023-02-18T09:28:05.716Z,12.36
2023-02-18T09:31:29.054Z,12.64
2023-02-18T09:34:58.856Z,12.52
2023-02-18T09:38:20.790Z,12.70
2023-02-18T09:41:52.579Z,12.81
2023-02-18T09:45:16.458Z,12.51
2023-02-18T09:48:38.479Z,12.27
2023-02-18T09:52:14.166Z,11.74
2023-02-18T09:55:41.288Z,11.65
2023-02-18T09:59:11.219Z,11.80
2023-02-18T10:02:38.034Z,11.31
2023-02-18T10:06:22.464Z,11.14
2023-02-18T10:09:46.220Z,11.53
2023-02-18T10:13:25.080Z,12.08
2023-02-18T10:16:52.511Z,12.16
2023-02-18T10:20:23.249Z,11.69
2023-02-18T10:24:09.147Z,11.58
2023-02-18T10:27:38.835Z,11.76
2023-02-18T10:31:24.208Z,12.26
2023-02-18T10:35:31.022Z,12.70
2023-02-18T10:40:00.284Z,12.44
2023-02-18T10:44:23.771Z,11.83
2023-02-18T10:48:34.620Z,12.59
2023-02-18T10:52:15.949Z,12.56
2023-02-18T10:55:45.459Z,12.06
2023-02-18T10:59:12.227Z,12.16
2023-02-18T11:02:34.176Z,12.02
2023-02-18T11:05:57.117Z,12.13
2023-02-18T11:09:52.410Z,11.88
2023-02-18T11:13:26.275Z,11.69
2023-02-18T11:16:53.545Z,11.49
2023-02-18T11:20:36.768Z,12.23
2023-02-18T11:24:15.626Z,11.74
2023-02-18T11:28:01.068Z,11.69
2023-02-18T11:31:37.067Z,11.81
2023-02-18T11:34:59.332Z,12.06
2023-02-18T11:38:56.694Z,12.28
2023-02-18T11:42:24.777Z,12.46
2023-02-18T11:45:47.747Z,12.27
2023-02-18T11:49:29.863Z,12.27
2023-02-18T11:52:53.753Z,12.45
2023-02-18T11:56:30.699Z,12.23
2023-02-18T11:59:55.096Z,12.44
2023-02-18T12:03:53.819Z,12.84
2023-02-18T12:07:41.274Z,12.94
2023-02-18T12:11:34.466Z,12.77
2023-02-18T12:14:59.467Z,12.37
2023-02-18T12:18:58.098Z,12.44
2023-02-18T12:22:44.773Z,12.88
2023-02-18T12:26:29.678Z,12.52
2023-02-18T12:29:59.682Z,12.84
2023-02-18T12:33:55.295Z,12.95
2023-02-18T12:38:24.072Z,12.00
2023-02-18T12:42:24.893Z,12.68
2023-02-18T12:46:22.235Z,13.12
2023-02-18T12:50:15.218Z,12.41
2023-02-18T12:53:50.068Z,12.11
2023-02-18T12:57:19.924Z,11.94
2023-02-18T13:01:01.620Z,12.34
2023-02-18T13:04:57.070Z,12.38
2023-02-18T13:08:58.987Z,12.46
2023-02-18T13:13:03.699Z,12.48
2023-02-18T13:16:29.199Z,12.23
2023-02-18T13:20:17.088Z,12.20
2023-02-18T13:23:58.794Z,12.62
2023-02-18T13:27:58.616Z,12.83
2023-02-18T13:31:42.670Z,11.97
2023-02-18T13:35:35.235Z,12.48
2023-02-18T13:39:20.542Z,12.07
2023-02-18T13:42:51.600Z,12.35
2023-02-18T13:46:19.083Z,12.33
2023-02-18T13:49:48.521Z,11.92
2023-02-18T13:53:24.350Z,12.07
2023-02-18T13:56:58.031Z,11.91
2023-02-18T14:00:47.559Z,11.89
2023-02-18T14:04:43.314Z,11.60
2023-02-18T14:08:36.177Z,11.89
2023-02-18T14:12:26.185Z,11.71
2023-02-18T14:16:01.732Z,11.91
2023-02-18T14:19:30.537Z,11.86
2023-02-18T14:22:53.193Z,11.75
2023-02-18T14:26:14.944Z,11.82
2023-02-18T14:29:36.858Z,11.28
2023-02-18T14:33:01.912Z,11.80
2023-02-18T14:36:54.549Z,12.20
2023-02-18T14:40:52.779Z,11.48
2023-02-18T14:44:14.506Z,11.76
2023-02-18T14:47:57.766Z,11.91
2023-02-18T14:51:26.906Z,11.53
2023-02-18T14:54:49.877Z,11.72
2023-02-18T14:58:28.153Z,11.56
2023-02-18T15:01:53.411Z,11.59
2023-02-18T15:05:26.620Z,11.77
2023-02-18T15:08:49.405Z,11.78
2023-02-18T15:12:25.882Z,11.23
2023-02-18T15:15:59.986Z,11.02
2023-02-18T15:19:39.787Z,11.33
2023-02-18T15:23:01.961Z,11.54
2023-02-18T15:26:23.871Z,11.17
2023-02-18T15:29:52.283Z,11.26
2023-02-18T15:33:23.555Z,11.34
2023-02-18T15:36:51.053Z,10.71
2023-02-18T15:40:18.847Z,11.03
2023-02-18T15:44:05.851Z,10.77
2023-02-18T15:47:30.201Z,10.45
2023-02-18T15:51:02.793Z,10.45
2023-02-18T15:54:31.805Z,10.45
2023-02-18T15:57:54.789Z,10.24
2023-02-18T16:01:30.471Z,10.81
2023-02-18T16:05:00.293Z,10.16
2023-02-18T16:08:27.716Z,10.14
2023-02-18T16:11:56.975Z,10.11
2023-02-18T16:15:29.997Z,10.22
2023-02-18T16:18:51.956Z,10.03
2023-02-18T16:22:36.488Z,9.80
2023-02-18T16:26:18.843Z,10.08
2023-02-18T16:29:51.033Z,10.59
2023-02-18T16:33:12.939Z,10.58
2023-02-18T16:36:35.125Z,10.10
2023-02-18T16:39:57.643Z,10.56
2023-02-18T16:43:26.785Z,10.56
2023-02-18T16:46:48.814Z,10.51
2023-02-18T16:50:21.079Z,10.37
2023-02-18T16:53:44.645Z,10.24
2023-02-18T16:57:07.400Z,10.36
2023-02-18T17:00:29.483Z,10.33
2023-02-18T17:03:52.461Z,10.25
2023-02-18T17:07:14.582Z,10.19
2023-02-18T17:10:37.375Z,10.30
2023-02-18T17:14:00.019Z,10.37
2023-02-18T17:17:23.518Z,10.37
2023-02-18T17:20:48.261Z,10.38
2023-02-18T17:24:18.931Z,10.36
2023-02-18T17:27:40.839Z,10.38
2023-02-18T17:31:02.791Z,10.35
2023-02-18T17:34:31.085Z,10.24
2023-02-18T17:37:53.469Z,10.31
2023-02-18T17:41:16.041Z,10.21
2023-02-18T17:44:39.883Z,10.15
2023-02-18T17:48:04.048Z,10.05
2023-02-18T17:51:31.407Z,9.97
2023-02-18T17:54:53.179Z,10.16
2023-02-18T17:58:17.714Z,10.32
2023-02-18T18:01:42.284Z,10.37
2023-02-18T18:05:04.563Z,10.32
2023-02-18T18:08:26.415Z,10.27
2023-02-18T18:11:49.247Z,10.26
2023-02-18T18:15:36.646Z,10.04
2023-02-18T18:19:02.510Z,10.24
2023-02-18T18:22:24.314Z,10.37
2023-02-18T18:25:58.980Z,10.20
2023-02-18T18:29:22.871Z,10.31
2023-02-18T18:32:44.734Z,10.16
2023-02-18T18:36:07.434Z,10.16
2023-02-18T18:39:35.241Z,9.99
2023-02-18T18:42:59.995Z,10.16
2023-02-18T18:46:22.942Z,10.14
2023-02-18T18:49:44.849Z,10.09
2023-02-18T18:53:14.533Z,10.19
2023-02-18T18:56:38.409Z,10.09
2023-02-18T19:00:02.315Z,10.00
2023-02-18T19:03:27.151Z,10.06
2023-02-18T19:06:55.757Z,10.11
2023-02-18T19:10:19.789Z,10.20
2023-02-18T19:13:46.789Z,10.08
2023-02-18T19:17:10.984Z,9.73
2023-02-18T19:20:35.968Z,9.85
2023-02-18T19:23:58.016Z,10.04
2023-02-18T19:27:25.851Z,10.66
2023-02-18T19:30:49.720Z,9.98
2023-02-18T19:34:14.366Z,9.72
2023-02-18T19:37:38.334Z,10.16
2023-02-18T19:41:14.938Z,10.66
2023-02-18T19:44:42.545Z,9.95
2023-02-18T19:48:04.408Z,9.86
2023-02-18T19:51:26.778Z,9.38
2023-02-18T19:54:49.035Z,9.81
2023-02-18T19:58:15.808Z,9.70
2023-02-18T20:01:38.716Z,9.51
2023-02-18T20:05:01.853Z,9.66
2023-02-18T20:08:23.735Z,10.48
2023-02-18T20:11:45.790Z,10.54
2023-02-18T20:15:09.087Z,10.47
2023-02-18T20:18:31.703Z,10.59
2023-02-18T20:21:55.901Z,10.58
2023-02-18T20:25:18.154Z,10.45
2023-02-18T20:28:40.874Z,10.58
2023-02-18T20:32:05.836Z,10.50
2023-02-18T20:35:27.708Z,10.48
2023-02-18T20:38:51.918Z,10.39
2023-02-18T20:42:16.875Z,10.09
2023-02-18T20:45:39.017Z,10.30
2023-02-18T20:49:02.002Z,10.49
2023-02-18T20:52:28.996Z,10.23
2023-02-18T20:55:51.772Z,10.42
2023-02-18T20:59:18.142Z,10.53
2023-02-18T21:02:41.928Z,10.39
2023-02-18T21:06:15.143Z,10.41
2023-02-18T21:09:37.145Z,10.49
2023-02-18T21:13:02.072Z,10.50
2023-02-18T21:16:27.901Z,10.30
2023-02-18T21:19:49.791Z,10.15
2023-02-18T21:23:12.560Z,10.30
2023-02-18T21:26:34.598Z,10.26
2023-02-18T21:29:59.873Z,10.25
2023-02-18T21:33:28.739Z,10.35
2023-02-18T21:36:50.543Z,10.39
2023-02-18T21:40:13.386Z,10.10
2023-02-18T21:43:35.167Z,10.24
2023-02-18T21:47:06.090Z,10.34
2023-02-18T21:50:27.883Z,10.25
2023-02-18T21:53:49.701Z,10.16
2023-02-18T21:57:24.106Z,10.28
2023-02-18T22:00:55.928Z,10.27
2023-02-18T22:04:18.156Z,10.43
2023-02-18T22:07:39.937Z,10.36
2023-02-18T22:11:05.593Z,10.35
2023-02-18T22:14:53.708Z,10.37
2023-02-18T22:18:19.269Z,10.48
2023-02-18T22:21:42.262Z,10.54
2023-02-18T22:25:04.725Z,10.36
2023-02-18T22:28:28.630Z,10.44
2023-02-18T22:31:53.704Z,10.56
2023-02-18T22:35:18.724Z,10.38
2023-02-18T22:38:40.541Z,10.60
2023-02-18T22:42:11.398Z,10.73
2023-02-18T22:45:41.095Z,10.66
2023-02-18T22:49:09.302Z,10.51
2023-02-18T22:52:56.880Z,10.45
2023-02-18T22:56:20.928Z,10.53
2023-02-18T22:59:42.749Z,9.49
2023-02-18T23:03:04.526Z,10.16
2023-02-18T23:06:26.398Z,10.43
2023-02-18T23:09:48.262Z,10.43
2023-02-18T23:13:15.091Z,10.22
2023-02-18T23:16:56.417Z,10.44
2023-02-18T23:20:39.571Z,10.61
2023-02-18T23:24:01.391Z,10.48
2023-02-18T23:27:48.449Z,10.54
2023-02-18T23:31:12.592Z,10.65
2023-02-18T23:34:35.691Z,10.63
2023-02-18T23:38:03.183Z,10.57
2023-02-18T23:41:26.780Z,10.45
2023-02-18T23:44:51.631Z,10.50
2023-02-18T23:48:23.468Z,10.45
2023-02-18T23:51:48.043Z,10.47
2023-02-18T23:55:10.578Z,10.38
2023-02-18T23:58:34.183Z,10.42
